Time;durP1;ratioP1;P1;durP2;ratioP2;P2;SDS_P1;SDS_P2;PMS_P1;PMS_P2;Temp;Humidity;BMP_temperature;BMP_pressure;BME280_temperature;BME280_humidity;BME280_pressure;Samples;Min_cycle;Max_cycle;Signal;HPM_P1;HPM_P2
2021/06/10 00:00:17;;;;;;;12.43;10.37;;;13.10;99.90;;;;;;5011734;28;20838;-63
2021/06/10 00:02:44;;;;;;;11.93;10.90;;;13.00;99.90;;;;;;5011822;28;20754;-64
2021/06/10 00:05:12;;;;;;;10.80;9.90;;;13.00;99.90;;;;;;5011528;28;20416;-64
2021/06/10 00:07:37;;;;;;;9.70;8.90;;;13.00;99.90;;;;;;5012126;28;20443;-64
2021/06/10 00:10:12;;;;;;;10.40;9.33;;;13.00;99.90;;;;;;5011417;28;20447;-64
2021/06/10 00:12:38;;;;;;;10.80;10.00;;;12.90;99.90;;;;;;5012115;28;20168;-63
2021/06/10 00:15:07;;;;;;;10.53;9.13;;;12.90;99.90;;;;;;5011898;28;20424;-63
2021/06/10 00:17:33;;;;;;;10.00;9.20;;;12.80;99.90;;;;;;5012226;28;20408;-64
2021/06/10 00:19:59;;;;;;;11.43;10.50;;;12.70;99.90;;;;;;5015843;28;20400;-63
2021/06/10 00:22:25;;;;;;;11.73;10.83;;;12.70;99.90;;;;;;5016249;28;20204;-64
2021/06/10 00:24:51;;;;;;;11.30;10.40;;;12.70;99.90;;;;;;5016009;28;20519;-64
2021/06/10 00:27:20;;;;;;;10.60;9.80;;;12.70;99.90;;;;;;5015878;28;20491;-63
2021/06/10 00:29:47;;;;;;;13.80;9.60;;;12.60;99.90;;;;;;5016153;28;20252;-64
2021/06/10 00:32:14;;;;;;;10.17;9.37;;;12.60;99.90;;;;;;5015327;28;20458;-63
2021/06/10 00:34:40;;;;;;;10.03;9.20;;;12.60;99.90;;;;;;5016020;28;20423;-63
2021/06/10 00:37:06;;;;;;;10.80;10.00;;;12.50;99.90;;;;;;5015612;28;20404;-63
2021/06/10 00:39:31;;;;;;;10.10;9.40;;;12.50;99.90;;;;;;5015467;28;20416;-63
2021/06/10 00:41:57;;;;;;;9.60;8.73;;;12.40;99.90;;;;;;5015306;28;20200;-64
2021/06/10 00:44:23;;;;;;;9.87;8.90;;;12.40;99.90;;;;;;5015595;28;20200;-64
2021/06/10 00:46:48;;;;;;;13.40;9.97;;;12.40;99.90;;;;;;5015508;28;20169;-63
2021/06/10 00:49:14;;;;;;;11.23;10.23;;;12.30;99.90;;;;;;5015428;28;20252;-63
2021/06/10 00:51:40;;;;;;;10.47;9.17;;;12.30;99.90;;;;;;5014924;28;20186;-63
2021/06/10 00:54:06;;;;;;;10.60;9.70;;;12.30;99.90;;;;;;5015447;28;20220;-63
2021/06/10 00:56:32;;;;;;;10.20;9.50;;;12.20;99.90;;;;;;5015308;28;20836;-63
2021/06/10 00:58:59;;;;;;;11.13;10.20;;;12.20;99.90;;;;;;5015473;28;20985;-63
2021/06/10 01:01:25;;;;;;;9.03;8.33;;;12.10;99.90;;;;;;5015006;28;20820;-63
2021/06/10 01:03:50;;;;;;;8.37;7.77;;;12.10;99.90;;;;;;5015279;28;20434;-63
2021/06/10 01:06:22;;;;;;;9.13;8.50;;;12.10;99.90;;;;;;5015347;28;20403;-63
2021/06/10 01:09:13;;;;;;;9.40;8.60;;;12.00;99.90;;;;;;5015123;28;20252;-63
2021/06/10 01:12:04;;;;;;;9.50;8.80;;;12.00;99.90;;;;;;5007086;28;20420;-63
2021/06/10 01:14:36;;;;;;;9.07;8.37;;;12.00;99.90;;;;;;5014929;28;20447;-63
2021/06/10 01:17:05;;;;;;;8.30;7.67;;;12.00;99.90;;;;;;5015057;28;20773;-63
2021/06/10 01:19:39;;;;;;;9.33;8.70;;;12.00;99.90;;;;;;5015008;28;20397;-63
2021/06/10 01:22:11;;;;;;;9.17;8.57;;;11.90;99.90;;;;;;5014522;28;20447;-63
2021/06/10 01:24:49;;;;;;;9.03;8.30;;;11.90;99.90;;;;;;5014876;28;20805;-64
2021/06/10 01:27:17;;;;;;;8.53;7.77;;;11.80;99.90;;;;;;5015215;28;20749;-63
2021/06/10 01:29:44;;;;;;;8.10;7.40;;;11.80;99.90;;;;;;5013417;28;20812;-63
2021/06/10 01:32:10;;;;;;;7.77;7.23;;;11.80;99.90;;;;;;5014450;28;20822;-63
2021/06/10 01:34:36;;;;;;;8.13;7.63;;;11.70;99.90;;;;;;5014528;28;20435;-64
2021/06/10 01:37:03;;;;;;;8.17;7.47;;;11.70;99.90;;;;;;5014593;28;20472;-63
2021/06/10 01:39:29;;;;;;;7.53;7.03;;;11.60;99.90;;;;;;5014609;28;20458;-63
2021/06/10 01:41:56;;;;;;;9.13;8.47;;;11.70;99.90;;;;;;5014274;28;20447;-64
2021/06/10 01:44:23;;;;;;;6.90;6.40;;;11.60;99.90;;;;;;5014542;28;20868;-63
2021/06/10 01:46:52;;;;;;;7.30;6.70;;;11.60;99.90;;;;;;5014579;28;20400;-63
2021/06/10 01:49:19;;;;;;;7.53;6.83;;;11.60;99.90;;;;;;5014489;28;20432;-63
2021/06/10 01:51:47;;;;;;;7.80;7.10;;;11.50;99.90;;;;;;5014347;28;20825;-64
2021/06/10 01:54:15;;;;;;;7.17;6.67;;;11.50;99.90;;;;;;5014651;28;20439;-63
2021/06/10 01:56:42;;;;;;;5.93;5.57;;;11.40;99.90;;;;;;5014453;28;20804;-63
2021/06/10 01:59:09;;;;;;;6.60;6.10;;;11.40;99.90;;;;;;5014365;28;20970;-63
2021/06/10 02:01:36;;;;;;;6.93;6.43;;;11.40;99.90;;;;;;5013987;28;20448;-63
2021/06/10 02:04:04;;;;;;;7.00;6.50;;;11.40;99.90;;;;;;5014235;28;20534;-63
2021/06/10 02:06:32;;;;;;;6.40;5.90;;;11.40;99.90;;;;;;5014205;28;20490;-64
2021/06/10 02:08:58;;;;;;;7.03;6.33;;;11.30;99.90;;;;;;5014144;28;20447;-63
2021/06/10 02:11:25;;;;;;;6.17;5.77;;;11.30;99.90;;;;;;5013864;28;20411;-63
2021/06/10 02:13:50;;;;;;;6.43;5.93;;;11.30;99.90;;;;;;5013895;28;20438;-63
2021/06/10 02:16:17;;;;;;;6.60;6.00;;;11.30;99.90;;;;;;5013979;28;20981;-63
2021/06/10 02:18:45;;;;;;;7.30;6.80;;;11.20;99.90;;;;;;5013980;28;20173;-63
2021/06/10 02:21:13;;;;;;;6.93;6.40;;;11.20;99.90;;;;;;5013810;28;20707;-63
2021/06/10 02:23:41;;;;;;;6.63;6.03;;;11.10;99.90;;;;;;5013827;28;20578;-63
2021/06/10 02:26:08;;;;;;;6.70;5.77;;;11.20;99.90;;;;;;5013788;28;20412;-62
2021/06/10 02:28:34;;;;;;;5.87;5.37;;;11.20;99.90;;;;;;5013723;28;20408;-62
2021/06/10 02:31:02;;;;;;;5.93;5.43;;;11.10;99.90;;;;;;5013494;28;20942;-63
2021/06/10 02:33:28;;;;;;;5.57;5.17;;;11.10;99.90;;;;;;5013693;28;20437;-63
2021/06/10 02:35:54;;;;;;;6.73;6.23;;;11.00;99.90;;;;;;5013755;28;20427;-63
2021/06/10 02:38:22;;;;;;;5.13;4.70;;;11.00;99.90;;;;;;5013575;28;20442;-64
2021/06/10 02:40:51;;;;;;;5.23;4.83;;;11.00;99.90;;;;;;5013033;28;20660;-63
2021/06/10 02:43:17;;;;;;;5.67;5.27;;;11.00;99.90;;;;;;5013245;28;20454;-63
2021/06/10 02:45:47;;;;;;;4.73;4.43;;;10.90;99.90;;;;;;5013530;28;20774;-63
2021/06/10 02:48:14;;;;;;;5.47;4.97;;;10.90;99.90;;;;;;5013416;28;20814;-63
2021/06/10 02:50:41;;;;;;;5.27;4.87;;;10.80;99.90;;;;;;5013068;28;20408;-63
2021/06/10 02:53:15;;;;;;;5.07;4.77;;;10.90;99.90;;;;;;5013306;28;20434;-63
2021/06/10 02:55:43;;;;;;;4.70;4.40;;;10.80;99.90;;;;;;5013390;28;20416;-63
2021/06/10 02:58:14;;;;;;;5.20;4.80;;;10.80;99.90;;;;;;5013309;28;20412;-63
2021/06/10 03:00:40;;;;;;;5.70;5.30;;;10.80;99.90;;;;;;5012957;28;20434;-63
2021/06/10 03:03:11;;;;;;;4.53;4.23;;;10.80;99.90;;;;;;5013021;28;20914;-63
2021/06/10 03:05:39;;;;;;;4.77;4.37;;;10.80;99.90;;;;;;5013188;28;20907;-63
2021/06/10 03:08:05;;;;;;;5.80;5.30;;;10.70;99.90;;;;;;5013073;28;20410;-63
2021/06/10 03:10:32;;;;;;;5.10;4.80;;;10.70;99.90;;;;;;5012650;28;20403;-63
2021/06/10 03:13:00;;;;;;;4.80;4.40;;;10.70;99.90;;;;;;5012881;28;20430;-63
2021/06/10 03:15:27;;;;;;;5.40;5.00;;;10.70;99.90;;;;;;5013607;28;20445;-63
2021/06/10 03:17:54;;;;;;;5.70;4.70;;;10.70;99.90;;;;;;5013203;28;20410;-62
2021/06/10 03:20:19;;;;;;;5.87;5.47;;;10.60;99.90;;;;;;5012566;28;20407;-63
2021/06/10 03:22:45;;;;;;;5.20;4.70;;;10.60;99.90;;;;;;5012592;28;20480;-63
2021/06/10 03:25:11;;;;;;;5.07;4.77;;;10.60;99.90;;;;;;5012803;28;20955;-63
2021/06/10 03:27:39;;;;;;;5.00;4.70;;;10.60;99.90;;;;;;5012776;28;20229;-62
2021/06/10 03:30:07;;;;;;;5.23;4.83;;;10.60;99.90;;;;;;5012450;28;20418;-63
2021/06/10 03:32:33;;;;;;;5.13;4.73;;;10.60;99.90;;;;;;5012629;28;20405;-63
2021/06/10 03:34:59;;;;;;;4.70;4.40;;;10.50;99.90;;;;;;5012640;28;20991;-63
2021/06/10 03:37:26;;;;;;;5.37;4.93;;;10.50;99.90;;;;;;5012533;28;20401;-62
2021/06/10 03:39:53;;;;;;;6.00;5.53;;;10.50;99.90;;;;;;5012506;28;20828;-63
2021/06/10 03:42:20;;;;;;;5.67;5.23;;;10.50;99.90;;;;;;5012267;28;20454;-63
2021/06/10 03:44:47;;;;;;;5.50;5.20;;;10.50;99.90;;;;;;5012395;28;20458;-63
2021/06/10 03:47:14;;;;;;;6.50;5.80;;;10.50;99.90;;;;;;5012519;28;20412;-63
2021/06/10 03:49:39;;;;;;;5.20;4.70;;;10.50;99.90;;;;;;5012906;28;20399;-63
2021/06/10 03:52:05;;;;;;;5.13;4.73;;;10.40;99.90;;;;;;5011599;28;20545;-63
2021/06/10 03:54:31;;;;;;;5.50;5.03;;;10.40;99.90;;;;;;5012116;28;20199;-63
2021/06/10 03:56:57;;;;;;;5.10;4.80;;;10.50;99.90;;;;;;5012358;28;20464;-63
2021/06/10 03:59:22;;;;;;;5.80;5.37;;;10.50;99.90;;;;;;5012282;28;20175;-63
2021/06/10 04:01:48;;;;;;;4.47;4.17;;;10.50;99.90;;;;;;5011946;28;20324;-63
2021/06/10 04:04:14;;;;;;;5.27;4.87;;;10.50;99.90;;;;;;5012204;28;20565;-63
2021/06/10 04:06:40;;;;;;;5.20;4.70;;;10.40;99.90;;;;;;5012061;28;20176;-63
2021/06/10 04:09:09;;;;;;;5.40;5.00;;;10.50;99.90;;;;;;5012220;28;20721;-63
2021/06/10 04:11:36;;;;;;;5.87;5.33;;;10.50;99.90;;;;;;5011852;28;20166;-62
2021/06/10 04:14:01;;;;;;;6.63;5.60;;;10.50;99.90;;;;;;5011926;28;20449;-63
2021/06/10 04:16:27;;;;;;;5.80;5.30;;;10.50;99.90;;;;;;5012167;28;20931;-62
2021/06/10 04:18:53;;;;;;;5.90;5.50;;;10.50;99.90;;;;;;5011988;28;20179;-63
2021/06/10 04:21:20;;;;;;;5.90;5.50;;;10.50;99.90;;;;;;5011591;28;20198;-63
2021/06/10 04:23:46;;;;;;;6.87;5.90;;;10.60;99.90;;;;;;5012009;28;20430;-63
2021/06/10 04:26:13;;;;;;;5.17;4.77;;;10.60;99.90;;;;;;5011994;28;20923;-63
2021/06/10 04:28:38;;;;;;;6.27;5.70;;;10.60;99.90;;;;;;5011996;28;20410;-63
2021/06/10 04:31:04;;;;;;;5.93;5.53;;;10.70;99.90;;;;;;5011717;28;20977;-62
2021/06/10 04:33:29;;;;;;;9.03;7.20;;;10.70;99.90;;;;;;5011904;28;20191;-63
2021/06/10 04:35:55;;;;;;;5.93;5.53;;;10.70;99.90;;;;;;5011764;28;20169;-63
2021/06/10 04:38:21;;;;;;;5.70;5.20;;;10.80;99.90;;;;;;5011925;28;20167;-63
2021/06/10 04:40:46;;;;;;;6.60;6.10;;;10.80;99.90;;;;;;5011740;28;20250;-63
2021/06/10 04:43:13;;;;;;;6.33;5.87;;;10.90;99.90;;;;;;5011932;28;20188;-63
2021/06/10 04:45:38;;;;;;;6.10;4.97;;;10.90;99.90;;;;;;5011878;28;20173;-63
2021/06/10 04:48:04;;;;;;;5.40;5.00;;;11.00;99.90;;;;;;5011869;28;20937;-63
2021/06/10 04:50:31;;;;;;;6.07;5.57;;;11.00;99.90;;;;;;5011337;28;20184;-63
2021/06/10 04:52:57;;;;;;;6.43;5.83;;;11.10;99.90;;;;;;5011723;28;20494;-63
2021/06/10 04:55:23;;;;;;;7.23;6.57;;;11.10;99.90;;;;;;5011936;28;20438;-63
2021/06/10 04:57:49;;;;;;;6.73;6.13;;;11.20;99.90;;;;;;5011779;28;20705;-63
2021/06/10 05:00:15;;;;;;;6.33;5.83;;;11.30;99.90;;;;;;5011481;28;20498;-63
2021/06/10 05:02:40;;;;;;;6.80;6.30;;;11.40;99.90;;;;;;5011532;28;20947;-63
2021/06/10 05:05:07;;;;;;;6.20;5.80;;;11.40;99.90;;;;;;5014432;28;20168;-63
2021/06/10 05:07:33;;;;;;;6.73;6.20;;;11.50;99.90;;;;;;5015308;28;20177;-63
2021/06/10 05:09:59;;;;;;;6.40;5.90;;;11.50;99.90;;;;;;5014999;28;20430;-62
2021/06/10 05:12:24;;;;;;;6.00;5.60;;;11.60;99.90;;;;;;5015263;28;20415;-63
2021/06/10 05:14:50;;;;;;;5.83;5.43;;;11.70;99.90;;;;;;5014364;28;20216;-65
2021/06/10 05:17:16;;;;;;;6.37;5.87;;;11.70;99.90;;;;;;5014071;28;20180;-62
2021/06/10 05:19:42;;;;;;;6.87;6.37;;;11.90;99.90;;;;;;5014904;28;20423;-60
2021/06/10 05:22:07;;;;;;;7.67;6.80;;;11.90;99.90;;;;;;5014780;28;20200;-60
2021/06/10 05:24:33;;;;;;;7.90;7.20;;;12.00;99.90;;;;;;5014955;28;20616;-59
2021/06/10 05:26:58;;;;;;;6.13;5.73;;;12.10;99.90;;;;;;5015108;28;20231;-60
2021/06/10 05:29:24;;;;;;;7.33;6.73;;;12.20;99.90;;;;;;5014918;28;20585;-58
2021/06/10 05:31:50;;;;;;;7.43;6.87;;;12.20;99.90;;;;;;5014545;28;20175;-60
2021/06/10 05:34:15;;;;;;;6.83;6.33;;;12.30;99.90;;;;;;5014611;28;20189;-60
2021/06/10 05:36:41;;;;;;;6.57;6.07;;;12.40;99.90;;;;;;5014877;28;20196;-60
2021/06/10 05:39:07;;;;;;;6.60;6.20;;;12.50;99.90;;;;;;5014773;28;20641;-60
2021/06/10 05:41:32;;;;;;;7.50;6.57;;;12.60;99.90;;;;;;5014372;28;20189;-60
2021/06/10 05:43:58;;;;;;;6.10;5.70;;;12.60;99.90;;;;;;5014703;28;20193;-60
2021/06/10 05:46:24;;;;;;;7.03;6.53;;;12.70;99.90;;;;;;5014616;28;20181;-60
2021/06/10 05:48:50;;;;;;;6.97;6.30;;;12.80;99.90;;;;;;5014478;28;20400;-61
2021/06/10 05:51:16;;;;;;;7.80;7.10;;;12.90;99.90;;;;;;5014177;28;20649;-60
2021/06/10 05:53:41;;;;;;;6.70;6.20;;;12.90;99.90;;;;;;5014651;28;20435;-60
2021/06/10 05:56:07;;;;;;;6.37;5.87;;;13.10;99.90;;;;;;5014509;28;20188;-61
2021/06/10 05:58:33;;;;;;;7.40;6.77;;;13.20;99.90;;;;;;5014372;28;20173;-60
2021/06/10 06:00:58;;;;;;;8.20;7.50;;;13.30;99.90;;;;;;5014000;28;20186;-60
2021/06/10 06:03:26;;;;;;;7.83;7.30;;;13.50;99.90;;;;;;5014129;28;20720;-60
2021/06/10 06:05:55;;;;;;;7.97;7.40;;;13.60;99.90;;;;;;5014264;28;20764;-60
2021/06/10 06:08:20;;;;;;;9.13;8.43;;;13.70;99.90;;;;;;5014145;28;20401;-60
2021/06/10 06:10:48;;;;;;;9.40;8.60;;;13.80;99.90;;;;;;5013776;28;20862;-59
2021/06/10 06:13:16;;;;;;;10.13;9.23;;;14.00;99.90;;;;;;5013981;28;20569;-62
2021/06/10 06:15:42;;;;;;;10.30;9.40;;;14.20;99.90;;;;;;5013542;28;20440;-62
2021/06/10 06:18:08;;;;;;;12.20;11.20;;;14.30;99.90;;;;;;5013937;28;20802;-61
2021/06/10 06:20:34;;;;;;;11.37;10.27;;;14.40;99.90;;;;;;5013696;28;20170;-62
2021/06/10 06:23:00;;;;;;;14.97;13.73;;;14.60;99.90;;;;;;5013946;28;20447;-62
2021/06/10 06:25:25;;;;;;;13.50;12.17;;;14.80;99.90;;;;;;5013935;28;20176;-62
2021/06/10 06:27:51;;;;;;;17.53;16.00;;;14.90;99.90;;;;;;5013865;28;20408;-61
2021/06/10 06:30:17;;;;;;;22.57;20.20;;;15.10;99.90;;;;;;5013349;28;20228;-62
2021/06/10 06:32:43;;;;;;;23.87;21.50;;;15.30;99.90;;;;;;5013707;28;20201;-62
2021/06/10 06:35:09;;;;;;;19.83;18.13;;;15.60;99.90;;;;;;5013762;28;20408;-65
2021/06/10 06:37:35;;;;;;;21.57;19.47;;;15.70;99.90;;;;;;5013667;28;20248;-64
2021/06/10 06:40:02;;;;;;;16.70;15.00;;;15.70;99.90;;;;;;5013326;28;20834;-64
2021/06/10 06:42:28;;;;;;;13.27;11.83;;;15.80;99.90;;;;;;5013448;28;20224;-63
2021/06/10 06:44:53;;;;;;;15.67;14.20;;;15.80;99.90;;;;;;5013377;28;20471;-62
2021/06/10 06:47:19;;;;;;;11.70;10.70;;;16.00;99.90;;;;;;5013450;28;20675;-61
2021/06/10 06:49:44;;;;;;;10.37;9.50;;;16.00;99.90;;;;;;5013599;28;20187;-61
2021/06/10 06:52:10;;;;;;;11.00;10.10;;;16.20;99.90;;;;;;5013187;28;20668;-63
2021/06/10 06:54:37;;;;;;;8.83;7.93;;;16.30;99.90;;;;;;5013294;28;20280;-62
2021/06/10 06:57:03;;;;;;;7.30;6.67;;;16.30;99.90;;;;;;5013266;28;20703;-62
2021/06/10 06:59:29;;;;;;;6.30;5.80;;;16.40;99.90;;;;;;5013207;28;20435;-64
2021/06/10 07:01:55;;;;;;;5.67;5.17;;;16.50;99.50;;;;;;5012790;28;20491;-63
2021/06/10 07:04:20;;;;;;;6.77;5.50;;;16.50;99.30;;;;;;5013058;28;20668;-63
2021/06/10 07:06:47;;;;;;;5.97;5.43;;;16.60;97.30;;;;;;5013102;28;20165;-63
2021/06/10 07:09:13;;;;;;;5.80;5.40;;;16.80;97.10;;;;;;5013021;28;20300;-63
2021/06/10 07:11:38;;;;;;;6.27;5.70;;;16.90;97.40;;;;;;5012765;28;20503;-63
2021/06/10 07:14:04;;;;;;;5.77;5.33;;;16.90;97.20;;;;;;5012726;28;20639;-64
2021/06/10 07:16:31;;;;;;;6.10;5.70;;;17.00;97.10;;;;;;5013084;28;20228;-63
2021/06/10 07:18:57;;;;;;;7.30;6.60;;;17.20;97.90;;;;;;5012868;28;20780;-64
2021/06/10 07:21:22;;;;;;;10.03;5.87;;;17.30;97.90;;;;;;5012624;28;20447;-64
2021/06/10 07:23:48;;;;;;;6.93;6.43;;;17.50;97.40;;;;;;5012772;28;20256;-64
2021/06/10 07:26:13;;;;;;;6.03;5.43;;;17.70;96.10;;;;;;5012732;28;20630;-64
2021/06/10 07:28:39;;;;;;;5.37;4.87;;;17.80;96.00;;;;;;5011870;28;20179;-63
2021/06/10 07:31:05;;;;;;;5.33;4.83;;;17.90;95.90;;;;;;5012509;28;20211;-64
2021/06/10 07:33:31;;;;;;;5.33;4.83;;;18.10;95.20;;;;;;5012587;28;20432;-64
2021/06/10 07:35:56;;;;;;;5.27;4.87;;;18.20;95.00;;;;;;5012692;28;20173;-64
2021/06/10 07:38:22;;;;;;;4.93;4.53;;;18.30;94.60;;;;;;5012587;28;20231;-64
2021/06/10 07:40:47;;;;;;;5.20;4.90;;;18.50;94.10;;;;;;5012271;28;20212;-64
2021/06/10 07:43:13;;;;;;;35.57;11.27;;;18.60;94.50;;;;;;5012417;28;20259;-64
2021/06/10 07:45:39;;;;;;;5.67;4.83;;;18.60;94.80;;;;;;5012475;28;20166;-63
2021/06/10 07:48:05;;;;;;;5.90;5.40;;;18.80;93.70;;;;;;5012500;28;20579;-63
2021/06/10 07:50:32;;;;;;;5.10;4.43;;;18.80;94.20;;;;;;5012196;28;20248;-63
2021/06/10 07:52:57;;;;;;;5.73;5.33;;;19.00;94.60;;;;;;5012359;28;20417;-64
2021/06/10 07:55:24;;;;;;;4.07;3.80;;;19.20;93.40;;;;;;5012367;28;20465;-64
2021/06/10 07:57:50;;;;;;;8.27;7.53;;;19.20;93.50;;;;;;5012262;28;20169;-64
2021/06/10 08:00:17;;;;;;;8.10;7.50;;;19.40;94.60;;;;;;5011955;28;20412;-63
2021/06/10 08:02:43;;;;;;;11.33;7.87;;;19.40;95.00;;;;;;5012001;28;20448;-63
2021/06/10 08:05:10;;;;;;;8.30;6.33;;;19.50;95.40;;;;;;5012228;28;20409;-63
2021/06/10 08:07:36;;;;;;;5.80;5.40;;;19.60;94.70;;;;;;5012184;28;20491;-64
2021/06/10 08:10:03;;;;;;;6.50;5.90;;;19.70;93.70;;;;;;5011872;28;20405;-64
2021/06/10 08:12:28;;;;;;;6.00;5.40;;;19.80;93.20;;;;;;5012015;28;20498;-64
2021/06/10 08:14:54;;;;;;;5.77;5.37;;;19.90;93.00;;;;;;5011935;28;20590;-64
2021/06/10 08:17:20;;;;;;;6.10;5.70;;;20.10;92.60;;;;;;5012116;28;20172;-64
2021/06/10 08:19:45;;;;;;;5.33;4.93;;;20.20;92.20;;;;;;5012049;28;20176;-64
2021/06/10 08:22:11;;;;;;;5.93;5.50;;;20.40;92.10;;;;;;5010439;28;20575;-64
2021/06/10 08:24:37;;;;;;;6.77;5.83;;;20.60;92.50;;;;;;5012134;28;20189;-64
2021/06/10 08:27:03;;;;;;;6.47;5.97;;;20.80;93.10;;;;;;5012007;28;20240;-65
2021/06/10 08:29:29;;;;;;;5.10;4.70;;;21.00;93.20;;;;;;5011984;28;20400;-64
2021/06/10 08:31:55;;;;;;;5.90;5.40;;;21.20;93.50;;;;;;5011668;28;20253;-64
2021/06/10 08:34:22;;;;;;;5.13;4.73;;;21.30;93.00;;;;;;5011965;28;20431;-64
2021/06/10 08:36:49;;;;;;;4.07;3.83;;;21.50;92.10;;;;;;5011941;28;20408;-64
2021/06/10 08:39:15;;;;;;;8.47;4.73;;;21.60;91.50;;;;;;5013584;28;20744;-63
2021/06/10 08:41:41;;;;;;;4.10;3.90;;;21.80;93.30;;;;;;5015372;28;20502;-64
2021/06/10 08:44:07;;;;;;;6.07;4.67;;;22.10;93.10;;;;;;5015795;28;20424;-65
2021/06/10 08:46:35;;;;;;;4.27;3.93;;;22.30;92.10;;;;;;5014501;28;20404;-64
2021/06/10 08:49:01;;;;;;;4.50;4.20;;;22.40;91.10;;;;;;5015817;28;20172;-63
2021/06/10 08:51:26;;;;;;;4.53;4.23;;;22.60;91.00;;;;;;5015443;28;20411;-65
2021/06/10 08:53:56;;;;;;;4.67;4.37;;;22.60;90.30;;;;;;5015527;28;20193;-64
2021/06/10 08:56:23;;;;;;;4.27;3.87;;;22.80;90.50;;;;;;5015551;28;20173;-65
2021/06/10 08:58:48;;;;;;;4.03;3.73;;;23.00;90.40;;;;;;5015422;28;20451;-65
2021/06/10 09:01:15;;;;;;;4.10;3.90;;;23.10;90.30;;;;;;5015130;28;20909;-64
2021/06/10 09:03:41;;;;;;;4.07;3.77;;;22.90;89.00;;;;;;5015370;28;20243;-64
2021/06/10 09:06:14;;;;;;;3.97;3.77;;;22.70;89.80;;;;;;5015397;28;20495;-64
2021/06/10 09:08:42;;;;;;;3.60;3.40;;;22.40;90.50;;;;;;5015315;28;20170;-65
2021/06/10 09:11:25;;;;;;;4.50;4.20;;;22.10;89.80;;;;;;5015303;28;20442;-64
2021/06/10 09:13:55;;;;;;;4.20;3.90;;;22.30;91.90;;;;;;5031536;22;20831;-66
2021/06/10 09:16:26;;;;;;;4.53;3.83;;;22.70;91.40;;;;;;5033673;28;20462;-65
2021/06/10 09:19:02;;;;;;;4.80;4.40;;;23.20;91.10;;;;;;5034939;28;20395;-65
2021/06/10 09:21:34;;;;;;;6.00;5.50;;;23.40;90.20;;;;;;5033894;28;20457;-65
2021/06/10 09:24:23;;;;;;;7.40;4.80;;;23.50;89.50;;;;;;5034751;28;20456;-65
2021/06/10 09:27:01;;;;;;;5.53;5.13;;;23.30;89.00;;;;;;5034791;28;20400;-65
2021/06/10 09:29:34;;;;;;;4.30;4.00;;;23.00;90.10;;;;;;5034485;28;20399;-65
2021/06/10 09:31:59;;;;;;;4.50;4.20;;;22.90;91.00;;;;;;5033886;28;20486;-65
2021/06/10 09:34:29;;;;;;;5.17;4.80;;;23.00;91.70;;;;;;5034546;28;20985;-65
2021/06/10 09:36:55;;;;;;;4.37;3.97;;;23.30;90.80;;;;;;5034592;28;20165;-65
2021/06/10 09:39:24;;;;;;;5.70;5.20;;;23.70;89.80;;;;;;5034448;28;20895;-65
2021/06/10 09:42:12;;;;;;;4.77;4.43;;;23.70;85.90;;;;;;5033547;28;20694;-65
2021/06/10 09:44:41;;;;;;;4.30;4.00;;;23.40;88.10;;;;;;5034284;28;20462;-65
2021/06/10 09:47:08;;;;;;;5.30;4.90;;;23.50;90.30;;;;;;5034618;28;20450;-65
2021/06/10 09:49:34;;;;;;;6.40;5.70;;;23.80;88.70;;;;;;5034244;28;20775;-65
2021/06/10 09:52:01;;;;;;;4.60;4.30;;;24.00;88.10;;;;;;5032578;28;20414;-65
2021/06/10 09:54:50;;;;;;;5.00;4.60;;;24.20;88.60;;;;;;5034098;28;20279;-65
2021/06/10 09:57:16;;;;;;;6.00;5.60;;;24.00;86.00;;;;;;5034403;28;20416;-65
2021/06/10 09:59:53;;;;;;;5.77;5.20;;;23.80;86.50;;;;;;5034013;28;20414;-65
2021/06/10 10:02:24;;;;;;;7.17;4.73;;;23.70;88.00;;;;;;5033319;28;20188;-65
2021/06/10 10:05:04;;;;;;;5.70;5.30;;;24.00;89.80;;;;;;5033955;28;20481;-65
2021/06/10 10:07:34;;;;;;;6.30;5.80;;;24.40;87.70;;;;;;5033987;28;20400;-65
2021/06/10 10:10:01;;;;;;;5.90;5.40;;;24.80;86.10;;;;;;5033209;28;20442;-65
2021/06/10 10:12:29;;;;;;;5.97;5.33;;;25.00;86.90;;;;;;5033885;28;20431;-65
2021/06/10 10:14:56;;;;;;;7.13;6.50;;;24.90;84.70;;;;;;5033515;28;20525;-65
2021/06/10 10:17:22;;;;;;;6.57;5.97;;;24.90;86.30;;;;;;5033769;28;20494;-65
2021/06/10 10:19:49;;;;;;;5.43;5.03;;;25.30;88.40;;;;;;5033685;28;20419;-65
2021/06/10 10:22:15;;;;;;;5.03;4.60;;;25.70;87.10;;;;;;5032899;28;20951;-65
2021/06/10 10:24:41;;;;;;;5.23;4.83;;;26.10;83.00;;;;;;5033614;28;20416;-65
2021/06/10 10:27:12;;;;;;;4.97;4.40;;;26.30;84.20;;;;;;5033714;28;20790;-65
2021/06/10 10:29:40;;;;;;;7.13;4.40;;;26.20;80.70;;;;;;5033551;28;20503;-65
2021/06/10 10:32:14;;;;;;;4.90;4.60;;;26.50;80.90;;;;;;5032564;28;20430;-66
2021/06/10 10:34:40;;;;;;;3.80;3.57;;;26.30;76.60;;;;;;5033653;28;20953;-65
2021/06/10 10:37:25;;;;;;;3.80;3.50;;;25.90;77.60;;;;;;5033484;28;20882;-65
2021/06/10 10:39:54;;;;;;;4.57;4.20;;;25.50;81.30;;;;;;5033432;28;20445;-65
2021/06/10 10:42:36;;;;;;;5.37;4.60;;;25.10;83.20;;;;;;5032404;28;20542;-66
2021/06/10 10:45:22;;;;;;;4.57;4.20;;;25.00;81.40;;;;;;5033198;28;20430;-66
2021/06/10 10:48:05;;;;;;;3.93;3.60;;;25.00;82.40;;;;;;5033338;28;20494;-65
2021/06/10 10:50:43;;;;;;;5.63;5.23;;;25.10;81.20;;;;;;5032463;28;20402;-65
2021/06/10 10:53:29;;;;;;;4.70;4.37;;;25.50;81.80;;;;;;5033125;28;20403;-65
2021/06/10 10:56:06;;;;;;;4.40;3.93;;;25.90;82.00;;;;;;5033089;28;20518;-66
2021/06/10 10:58:32;;;;;;;3.40;3.20;;;26.50;79.60;;;;;;5032971;28;20407;-65
2021/06/10 11:00:59;;;;;;;5.57;5.17;;;27.10;81.30;;;;;;5032170;28;20407;-66
2021/06/10 11:03:38;;;;;;;4.33;4.03;;;27.50;79.00;;;;;;5032730;28;20454;-65
2021/06/10 11:06:25;;;;;;;5.93;5.47;;;27.80;80.80;;;;;;5032974;28;20507;-66
2021/06/10 11:09:12;;;;;;;4.80;4.50;;;27.80;75.60;;;;;;5032782;28;20886;-67
2021/06/10 11:11:51;;;;;;;6.63;6.03;;;28.20;77.90;;;;;;5032149;28;20438;-69
2021/06/10 11:14:51;;;;;;;4.93;4.53;;;28.20;71.10;;;;;;5032524;28;20455;-68
2021/06/10 11:17:27;;;;;;;4.43;4.17;;;28.20;75.40;;;;;;5018635;28;20434;-69
2021/06/10 11:20:01;;;;;;;5.47;4.73;;;28.80;72.80;;;;;;5032626;28;20411;-68
2021/06/10 11:22:35;;;;;;;3.90;3.60;;;29.10;74.70;;;;;;5032431;28;20443;-67
2021/06/10 11:25:03;;;;;;;4.60;4.30;;;29.10;73.10;;;;;;5032454;28;20942;-68
2021/06/10 11:28:06;;;;;;;3.90;3.70;;;28.60;67.30;;;;;;5032510;28;20431;-67
2021/06/10 11:30:31;;;;;;;5.13;4.73;;;28.10;71.10;;;;;;5031582;28;20399;-67
2021/06/10 11:33:02;;;;;;;4.47;3.53;;;28.00;73.10;;;;;;5032454;28;20929;-68
2021/06/10 11:35:29;;;;;;;3.67;3.37;;;28.00;69.30;;;;;;5032375;28;20193;-66
2021/06/10 11:38:00;;;;;;;3.90;3.60;;;28.50;72.90;;;;;;5032305;28;20408;-69
2021/06/10 11:40:26;;;;;;;4.00;3.70;;;29.20;70.50;;;;;;5031490;28;20466;-69
2021/06/10 11:42:52;;;;;;;3.50;3.30;;;29.40;67.50;;;;;;5032140;28;21180;-67
2021/06/10 11:45:25;;;;;;;4.50;4.20;;;29.80;68.60;;;;;;5032158;28;20549;-67
2021/06/10 11:47:51;;;;;;;4.10;3.83;;;30.10;68.80;;;;;;5032322;28;20552;-65
2021/06/10 11:50:35;;;;;;;5.37;5.07;;;30.30;68.10;;;;;;5031273;28;20399;-65
2021/06/10 11:53:17;;;;;;;5.27;4.90;;;30.40;70.50;;;;;;5032221;28;20180;-65
2021/06/10 11:55:45;;;;;;;6.93;5.00;;;30.50;67.30;;;;;;5032129;28;20435;-65
2021/06/10 11:58:12;;;;;;;5.00;4.70;;;30.70;67.80;;;;;;5032034;28;20847;-65
2021/06/10 12:00:43;;;;;;;4.17;3.77;;;30.30;69.00;;;;;;5031143;28;20419;-65
2021/06/10 12:03:15;;;;;;;5.60;5.07;;;30.20;63.60;;;;;;5032103;28;20454;-65
2021/06/10 12:05:51;;;;;;;4.87;4.57;;;30.10;65.10;;;;;;5031746;28;20949;-65
2021/06/10 12:08:26;;;;;;;4.47;4.17;;;29.90;65.60;;;;;;5032106;28;20399;-65
2021/06/10 12:11:00;;;;;;;5.07;4.77;;;29.70;69.30;;;;;;5031167;28;20402;-65
2021/06/10 12:13:35;;;;;;;5.27;4.87;;;29.70;67.30;;;;;;5031368;28;20924;-65
2021/06/10 12:16:04;;;;;;;6.13;4.60;;;29.40;66.90;;;;;;5031724;28;20870;-65
2021/06/10 12:18:30;;;;;;;9.13;6.00;;;29.30;69.20;;;;;;5031645;28;20407;-65
2021/06/10 12:21:02;;;;;;;6.77;5.37;;;29.30;71.90;;;;;;5031027;28;20773;-65
2021/06/10 12:23:39;;;;;;;6.10;5.70;;;29.80;69.90;;;;;;5031745;28;20172;-64
2021/06/10 12:26:16;;;;;;;5.60;5.10;;;30.20;69.10;;;;;;5031581;28;20481;-64
2021/06/10 12:28:52;;;;;;;4.63;4.30;;;30.60;72.10;;;;;;5031604;28;20488;-64
2021/06/10 12:31:23;;;;;;;5.63;5.13;;;31.00;75.70;;;;;;5031001;28;20961;-64
2021/06/10 12:33:58;;;;;;;5.57;5.03;;;31.30;70.30;;;;;;5031512;28;20498;-65
2021/06/10 12:36:31;;;;;;;4.97;4.60;;;31.40;62.40;;;;;;5031615;28;20405;-64
2021/06/10 12:38:59;;;;;;;5.17;4.67;;;31.70;66.00;;;;;;5031536;28;20461;-65
2021/06/10 12:41:31;;;;;;;5.17;4.87;;;31.90;67.00;;;;;;5030854;28;20569;-65
2021/06/10 12:44:11;;;;;;;3.60;3.40;;;31.90;69.80;;;;;;5031392;28;20403;-65
2021/06/10 12:46:47;;;;;;;4.13;3.70;;;32.20;69.20;;;;;;5031502;28;20927;-65
2021/06/10 12:49:13;;;;;;;4.13;3.70;;;32.40;64.80;;;;;;5031412;28;20473;-65
2021/06/10 12:51:45;;;;;;;4.30;4.00;;;32.60;65.90;;;;;;5029552;28;20424;-65